Terminal Aerodrome Forecast
Issued by NWS

Home | Current Version | Previous Version | Text Only | Print | Product List | Glossary On
Versions: 1 2 3 4 5 6 7 8 9 10 11 12 13 14 15 16 17 18 19 20 21 22
000
FTUS41 KALY 282336
TAFPSF
TAF
KPSF 282336Z 2900/2924 27009KT P6SM SKC
     FM290300 21004KT P6SM SCT250
     FM290600 22004KT P6SM BKN070
     FM291500 20008KT P6SM BKN120
     FM292000 21012G24KT P6SM BKN200 PROB30 2922/2924 4SM -SHRA
      OVC040=

USA.gov is the U.S. government's official web portal to all federal, state and local government web resources and services.